createdAt,value
2019-02-23T00:01:00.436Z,34.20
2019-02-23T00:03:28.235Z,33.15
2019-02-23T00:05:56.108Z,29.80
2019-02-23T00:08:24.052Z,33.78
2019-02-23T00:10:51.807Z,33.45
2019-02-23T00:13:19.607Z,37.20
2019-02-23T00:15:47.541Z,38.75
2019-02-23T00:18:15.352Z,34.63
2019-02-23T00:20:43.798Z,37.28
2019-02-23T00:23:11.705Z,39.90
2019-02-23T00:25:39.545Z,42.10
2019-02-23T00:28:07.363Z,44.55
2019-02-23T00:30:35.312Z,40.25
2019-02-23T00:33:03.313Z,35.95
2019-02-23T00:35:31.184Z,34.45
2019-02-23T00:37:59.095Z,33.80
2019-02-23T00:40:26.929Z,32.35
2019-02-23T00:42:54.756Z,38.38
2019-02-23T00:45:22.497Z,34.25
2019-02-23T00:47:50.420Z,39.42
2019-02-23T00:50:18.391Z,54.63
2019-02-23T00:52:46.699Z,64.03
2019-02-23T00:55:14.534Z,79.92
2019-02-23T00:57:42.444Z,75.52
2019-02-23T01:00:12.439Z,61.15
2019-02-23T01:02:40.594Z,43.23
2019-02-23T01:05:08.557Z,37.48
2019-02-23T01:07:37.411Z,31.68
2019-02-23T01:10:06.893Z,30.65
2019-02-23T01:12:34.765Z,29.18
2019-02-23T01:15:02.669Z,29.25
2019-02-23T01:17:30.412Z,31.65
2019-02-23T01:19:58.656Z,32.90
2019-02-23T01:22:26.512Z,39.67
2019-02-23T01:24:54.618Z,45.33
2019-02-23T01:27:22.600Z,43.42
2019-02-23T01:29:50.506Z,45.58
2019-02-23T01:32:18.337Z,56.20
2019-02-23T01:34:46.362Z,62.50
2019-02-23T01:37:14.232Z,71.12
2019-02-23T01:39:42.132Z,69.42
2019-02-23T01:42:11.042Z,90.03
2019-02-23T01:44:38.850Z,85.55
2019-02-23T01:47:06.998Z,73.30
2019-02-23T01:49:34.974Z,59.20
2019-02-23T01:52:02.927Z,52.15
2019-02-23T01:54:30.733Z,51.00
2019-02-23T01:56:58.677Z,50.50
2019-02-23T01:59:26.475Z,60.52
2019-02-23T02:01:54.518Z,64.10
2019-02-23T02:04:22.552Z,51.95
2019-02-23T02:06:50.521Z,39.85
2019-02-23T02:09:18.512Z,45.45
2019-02-23T02:11:46.467Z,46.15
2019-02-23T02:14:14.470Z,44.58
2019-02-23T02:16:42.416Z,47.60
2019-02-23T02:19:10.363Z,49.60
2019-02-23T02:21:38.120Z,46.77
2019-02-23T02:24:06.024Z,43.15
2019-02-23T02:26:33.895Z,56.18
2019-02-23T02:29:01.693Z,51.65
2019-02-23T02:31:29.443Z,47.95
2019-02-23T02:34:08.112Z,51.98
2019-02-23T02:36:35.987Z,47.75
2019-02-23T02:39:07.844Z,62.08
2019-02-23T02:41:36.281Z,61.95
2019-02-23T02:44:04.102Z,65.32
2019-02-23T02:46:31.975Z,64.92
2019-02-23T02:48:59.869Z,73.45
2019-02-23T02:51:27.775Z,63.50
2019-02-23T02:53:55.690Z,65.17
2019-02-23T02:56:24.770Z,64.40
2019-02-23T02:58:52.715Z,64.37
2019-02-23T03:01:20.561Z,64.95
2019-02-23T03:03:48.285Z,63.78
2019-02-23T03:06:16.102Z,61.63
2019-02-23T03:08:44.160Z,84.80
2019-02-23T03:11:12.006Z,80.67
2019-02-23T03:13:40.564Z,89.65
2019-02-23T03:16:20.196Z,57.08
2019-02-23T03:18:48.233Z,40.90
2019-02-23T03:21:16.156Z,39.95
2019-02-23T03:23:43.893Z,38.83
2019-02-23T03:26:11.894Z,43.17
2019-02-23T03:28:39.640Z,36.77
2019-02-23T03:31:07.675Z,36.23
2019-02-23T03:33:35.422Z,38.58
2019-02-23T03:36:03.636Z,35.33
2019-02-23T03:38:31.503Z,40.08
2019-02-23T03:40:59.510Z,35.85
2019-02-23T03:43:27.435Z,38.92
2019-02-23T03:45:55.321Z,34.25
2019-02-23T03:48:23.192Z,34.40
2019-02-23T03:50:51.064Z,30.12
2019-02-23T03:53:18.916Z,35.95
2019-02-23T03:55:46.706Z,33.15
2019-02-23T03:58:14.785Z,33.95
2019-02-23T04:00:42.821Z,36.00
2019-02-23T04:03:10.699Z,32.17
2019-02-23T04:05:38.706Z,38.75
2019-02-23T04:08:06.693Z,35.25
2019-02-23T04:10:34.616Z,34.35
2019-02-23T04:13:02.554Z,40.38
2019-02-23T04:15:30.342Z,34.05
2019-02-23T04:17:58.105Z,36.48
2019-02-23T04:20:26.433Z,37.85
2019-02-23T04:22:54.210Z,34.00
2019-02-23T04:25:22.332Z,37.95
2019-02-23T04:27:50.195Z,38.50
2019-02-23T04:30:18.118Z,42.15
2019-02-23T04:32:45.964Z,40.92
2019-02-23T04:35:13.772Z,42.35
2019-02-23T04:37:42.387Z,41.30
2019-02-23T04:40:10.279Z,42.50
2019-02-23T04:42:38.056Z,44.95
2019-02-23T04:45:06.153Z,37.50
2019-02-23T04:47:33.993Z,39.45
2019-02-23T04:50:03.409Z,37.65
2019-02-23T04:52:31.278Z,43.85
2019-02-23T04:55:01.283Z,38.90
2019-02-23T04:57:29.227Z,36.98
2019-02-23T04:59:57.024Z,37.73
2019-02-23T05:02:24.945Z,45.30
2019-02-23T05:04:52.949Z,39.40
2019-02-23T05:07:21.365Z,38.13
2019-02-23T05:09:49.241Z,33.13
2019-02-23T05:12:17.788Z,34.95
2019-02-23T05:14:45.841Z,34.20
2019-02-23T05:17:13.869Z,37.58
2019-02-23T05:19:42.328Z,33.85
2019-02-23T05:22:10.357Z,38.98
2019-02-23T05:24:38.184Z,34.13
2019-02-23T05:27:06.022Z,39.05
2019-02-23T05:29:33.798Z,34.88
2019-02-23T05:32:01.701Z,36.17
2019-02-23T05:34:29.653Z,37.13
2019-02-23T05:36:57.446Z,38.45
2019-02-23T05:39:25.211Z,35.43
2019-02-23T05:41:53.131Z,37.90
2019-02-23T05:44:20.874Z,43.48
2019-02-23T05:46:48.801Z,48.10
2019-02-23T05:49:16.771Z,43.65
2019-02-23T05:51:48.478Z,39.98
2019-02-23T05:54:16.377Z,47.67
2019-02-23T05:56:44.315Z,47.48
2019-02-23T05:59:12.769Z,47.00
2019-02-23T06:01:40.703Z,50.38
2019-02-23T06:04:08.643Z,57.13
2019-02-23T06:06:37.050Z,60.73
2019-02-23T06:09:05.543Z,63.45
2019-02-23T06:11:33.680Z,65.03
2019-02-23T06:14:01.451Z,68.42
2019-02-23T06:16:29.963Z,62.00
2019-02-23T06:18:57.815Z,66.47
2019-02-23T06:21:25.670Z,69.32
2019-02-23T06:23:53.401Z,105.50
2019-02-23T06:26:21.201Z,188.35
2019-02-23T06:28:49.094Z,186.30
2019-02-23T06:31:16.915Z,168.80
2019-02-23T06:33:44.701Z,179.63
2019-02-23T06:36:12.594Z,167.47
2019-02-23T06:38:40.351Z,168.00
2019-02-23T06:41:08.179Z,155.78
2019-02-23T06:43:35.916Z,167.30
2019-02-23T06:46:03.803Z,159.97
2019-02-23T06:48:31.713Z,155.30
2019-02-23T06:50:59.797Z,144.47
2019-02-23T06:53:27.765Z,131.45
2019-02-23T06:55:55.762Z,121.70
2019-02-23T06:58:23.649Z,124.20
2019-02-23T07:00:52.095Z,124.55
2019-02-23T07:03:19.992Z,140.65
2019-02-23T07:05:48.140Z,134.27
2019-02-23T07:08:16.134Z,149.38
2019-02-23T07:10:44.017Z,142.18
2019-02-23T07:13:11.831Z,133.57
2019-02-23T07:15:39.880Z,131.60
2019-02-23T07:18:07.690Z,122.25
2019-02-23T07:20:43.659Z,126.12
2019-02-23T07:23:05.528Z,98.22
2019-02-23T07:25:33.430Z,94.85
2019-02-23T07:28:01.249Z,118.90
2019-02-23T07:30:29.223Z,139.77
2019-02-23T07:32:57.050Z,124.75
2019-02-23T07:35:24.822Z,82.22
2019-02-23T07:37:52.609Z,55.85
2019-02-23T07:40:20.453Z,56.95
2019-02-23T07:42:48.351Z,59.98
2019-02-23T07:45:16.126Z,73.05
2019-02-23T07:47:44.019Z,78.02
2019-02-23T07:50:12.049Z,65.00
2019-02-23T07:52:39.948Z,56.13
2019-02-23T07:55:07.913Z,46.08
2019-02-23T07:57:35.860Z,45.08
2019-02-23T08:00:04.040Z,48.68
2019-02-23T08:02:31.962Z,51.05
2019-02-23T08:04:59.714Z,49.80
2019-02-23T08:07:27.650Z,197.47
2019-02-23T08:09:55.600Z,88.37
2019-02-23T08:12:23.545Z,115.00
2019-02-23T08:14:51.304Z,63.68
2019-02-23T08:17:19.101Z,93.35
2019-02-23T08:19:47.046Z,32.88
2019-02-23T08:22:14.870Z,47.05
2019-02-23T08:24:42.721Z,49.55
2019-02-23T08:27:10.493Z,29.07
2019-02-23T08:29:38.414Z,31.48
2019-02-23T08:32:06.160Z,37.65
2019-02-23T08:34:33.952Z,31.37
2019-02-23T08:37:01.743Z,29.27
2019-02-23T08:39:29.591Z,29.95
2019-02-23T08:41:57.333Z,26.02
2019-02-23T08:44:25.150Z,25.15
2019-02-23T08:46:52.910Z,28.87
2019-02-23T08:49:20.825Z,28.07
2019-02-23T08:51:48.618Z,29.87
2019-02-23T08:54:16.547Z,22.45
2019-02-23T08:56:44.991Z,28.15
2019-02-23T08:59:12.822Z,19.87
2019-02-23T09:01:40.673Z,21.68
2019-02-23T09:04:08.483Z,21.60
2019-02-23T09:06:36.253Z,23.65
2019-02-23T09:09:08.044Z,23.07
2019-02-23T09:11:35.352Z,25.05
2019-02-23T09:14:03.694Z,20.90
2019-02-23T09:16:31.461Z,23.45
2019-02-23T09:18:59.289Z,24.00
2019-02-23T09:21:27.230Z,20.05
2019-02-23T09:23:55.024Z,20.20
2019-02-23T09:26:22.987Z,17.37
2019-02-23T09:28:50.897Z,15.20
2019-02-23T09:31:18.664Z,15.85
2019-02-23T09:33:46.563Z,17.27
2019-02-23T09:36:14.411Z,13.80
2019-02-23T09:38:42.769Z,12.75
2019-02-23T09:41:10.769Z,17.37
2019-02-23T09:43:38.665Z,15.32
2019-02-23T09:46:06.513Z,20.48
2019-02-23T09:48:34.336Z,17.65
2019-02-23T09:51:02.313Z,15.20
2019-02-23T09:53:30.513Z,15.70
2019-02-23T09:55:58.562Z,17.92
2019-02-23T09:58:26.388Z,15.65
2019-02-23T10:00:54.678Z,17.30
2019-02-23T10:03:22.625Z,12.18
2019-02-23T10:05:50.590Z,14.55
2019-02-23T10:08:18.442Z,14.25
2019-02-23T10:10:46.324Z,17.95
2019-02-23T10:13:14.293Z,16.95
2019-02-23T10:15:42.323Z,18.05
2019-02-23T10:18:10.156Z,18.07
2019-02-23T10:20:37.950Z,14.53
2019-02-23T10:23:05.709Z,14.25
2019-02-23T10:25:33.487Z,16.67
2019-02-23T10:28:01.217Z,17.25
2019-02-23T10:30:29.143Z,20.27
2019-02-23T10:32:56.890Z,17.98
2019-02-23T10:35:24.827Z,23.65
2019-02-23T10:37:53.388Z,15.90
2019-02-23T10:40:21.224Z,13.30
2019-02-23T10:42:48.993Z,12.05
2019-02-23T10:45:16.885Z,12.95
2019-02-23T10:47:44.768Z,11.90
2019-02-23T10:50:13.034Z,16.27
2019-02-23T10:52:40.825Z,18.50
2019-02-23T10:55:09.540Z,14.87
2019-02-23T10:57:37.403Z,16.65
2019-02-23T11:00:10.401Z,15.18
2019-02-23T11:02:38.258Z,11.78
2019-02-23T11:05:09.094Z,8.60
2019-02-23T11:07:36.947Z,11.63
2019-02-23T11:10:05.424Z,10.93
2019-02-23T11:12:33.373Z,12.55
2019-02-23T11:15:01.170Z,13.18
2019-02-23T11:17:29.122Z,15.40
2019-02-23T11:19:57.722Z,15.30
2019-02-23T11:22:25.702Z,18.17
2019-02-23T11:24:53.708Z,30.60
2019-02-23T11:27:21.568Z,37.80
2019-02-23T11:29:49.496Z,47.80
2019-02-23T11:32:17.252Z,38.67
2019-02-23T11:34:45.078Z,32.03
2019-02-23T11:37:12.941Z,19.73
2019-02-23T11:39:40.741Z,17.82
2019-02-23T11:42:08.606Z,19.73
2019-02-23T11:44:36.426Z,15.98
2019-02-23T11:47:04.351Z,13.93
2019-02-23T11:49:32.174Z,14.33
2019-02-23T11:52:00.071Z,13.95
2019-02-23T11:54:27.881Z,12.18
2019-02-23T11:56:55.652Z,11.45
2019-02-23T11:59:24.124Z,11.73
2019-02-23T12:01:52.758Z,10.00
2019-02-23T12:04:20.528Z,10.72
2019-02-23T12:06:48.451Z,12.03
2019-02-23T12:09:16.210Z,13.98
2019-02-23T12:11:44.204Z,12.85
2019-02-23T12:14:12.062Z,10.68
2019-02-23T12:16:39.850Z,11.73
2019-02-23T12:19:07.712Z,12.60
2019-02-23T12:21:35.549Z,13.75
2019-02-23T12:24:06.297Z,15.10
2019-02-23T12:26:33.160Z,10.88
2019-02-23T12:29:00.919Z,11.22
2019-02-23T12:31:28.916Z,12.70
2019-02-23T12:33:56.780Z,13.08
2019-02-23T12:36:24.822Z,12.15
2019-02-23T12:38:52.672Z,10.50
2019-02-23T12:41:20.478Z,12.55
2019-02-23T12:43:48.325Z,15.58
2019-02-23T12:46:16.454Z,13.78
2019-02-23T12:48:44.191Z,11.45
2019-02-23T12:51:12.210Z,12.63
2019-02-23T12:53:40.227Z,13.83
2019-02-23T12:56:08.162Z,14.47
2019-02-23T12:58:36.540Z,17.92
2019-02-23T13:01:04.559Z,16.93
2019-02-23T13:03:32.520Z,14.20
2019-02-23T13:06:00.330Z,12.68
2019-02-23T13:09:06.035Z,13.50
2019-02-23T13:11:33.830Z,13.18
2019-02-23T13:14:24.627Z,11.55
2019-02-23T13:17:08.716Z,11.20
2019-02-23T13:19:55.777Z,11.63
2019-02-23T13:23:04.269Z,14.93
2019-02-23T13:26:16.570Z,11.88
2019-02-23T13:29:13.730Z,12.43
2019-02-23T13:32:25.066Z,9.30
2019-02-23T13:35:22.972Z,10.88
2019-02-23T13:38:22.593Z,17.35
2019-02-23T13:41:18.940Z,29.95
2019-02-23T13:44:21.379Z,21.40
2019-02-23T13:47:04.334Z,15.72
2019-02-23T13:50:14.760Z,18.98
2019-02-23T13:53:36.589Z,19.73
2019-02-23T13:56:45.748Z,13.10
2019-02-23T13:59:56.243Z,14.85
2019-02-23T14:03:14.327Z,15.28
2019-02-23T14:05:59.304Z,10.43
2019-02-23T14:09:04.715Z,13.15
2019-02-23T14:12:00.579Z,14.85
2019-02-23T14:15:09.518Z,15.93
2019-02-23T14:18:18.965Z,11.18
2019-02-23T14:21:27.074Z,21.82
2019-02-23T14:24:50.403Z,15.00
2019-02-23T14:27:43.141Z,15.85
2019-02-23T14:31:10.575Z,20.32
2019-02-23T14:34:09.880Z,12.13
2019-02-23T14:37:22.060Z,19.50
2019-02-23T14:40:49.525Z,18.82
2019-02-23T14:44:08.234Z,21.62
2019-02-23T14:46:57.149Z,23.98
2019-02-23T14:50:33.837Z,20.45
2019-02-23T14:54:07.274Z,13.72
2019-02-23T14:57:16.469Z,36.17
2019-02-23T14:59:57.160Z,17.10
2019-02-23T15:03:25.061Z,47.88
2019-02-23T15:06:32.798Z,16.73
2019-02-23T15:09:40.835Z,19.03
2019-02-23T15:12:43.795Z,32.28
2019-02-23T15:15:46.869Z,33.65
2019-02-23T15:18:50.360Z,19.50
2019-02-23T15:22:21.457Z,14.78
2019-02-23T15:25:26.265Z,16.05
2019-02-23T15:28:30.324Z,15.65
2019-02-23T15:31:10.250Z,13.18
2019-02-23T15:34:38.328Z,18.15
2019-02-23T15:37:18.397Z,24.02
2019-02-23T15:40:12.253Z,50.33
2019-02-23T15:43:10.372Z,39.83
2019-02-23T15:46:28.370Z,68.83
2019-02-23T15:49:34.615Z,46.75
2019-02-23T15:52:04.331Z,54.67
2019-02-23T15:54:32.331Z,48.25
2019-02-23T15:57:00.082Z,63.08
2019-02-23T15:59:27.920Z,65.52
2019-02-23T16:01:55.827Z,70.15
2019-02-23T16:04:23.654Z,55.12
2019-02-23T16:06:51.941Z,39.63
2019-02-23T16:09:19.896Z,42.15
2019-02-23T16:11:47.820Z,39.33
2019-02-23T16:14:15.685Z,46.70
2019-02-23T16:16:43.618Z,110.35
2019-02-23T16:19:11.472Z,166.62
2019-02-23T16:21:39.378Z,159.75
2019-02-23T16:24:07.316Z,221.05
2019-02-23T16:26:35.326Z,206.78
2019-02-23T16:29:03.188Z,117.33
2019-02-23T16:31:31.072Z,85.10
2019-02-23T16:33:58.816Z,61.15
2019-02-23T16:36:26.615Z,42.75
2019-02-23T16:38:54.369Z,34.40
2019-02-23T16:41:22.683Z,26.05
2019-02-23T16:43:50.625Z,36.85
2019-02-23T16:46:18.417Z,33.23
2019-02-23T16:48:46.150Z,34.08
2019-02-23T16:51:14.764Z,50.78
2019-02-23T16:53:42.824Z,78.92
2019-02-23T16:56:10.612Z,84.90
2019-02-23T16:58:38.375Z,63.78
2019-02-23T17:01:06.295Z,52.73
2019-02-23T17:03:34.038Z,51.55
2019-02-23T17:06:01.877Z,62.75
2019-02-23T17:08:29.746Z,66.30
2019-02-23T17:10:57.646Z,59.30
2019-02-23T17:13:25.620Z,53.52
2019-02-23T17:15:53.470Z,63.08
2019-02-23T17:18:21.231Z,84.58
2019-02-23T17:20:49.033Z,72.90
2019-02-23T17:23:16.762Z,66.85
2019-02-23T17:25:44.544Z,44.33
2019-02-23T17:28:12.603Z,48.95
2019-02-23T17:30:40.423Z,56.50
2019-02-23T17:33:08.255Z,54.80
2019-02-23T17:35:36.076Z,47.05
2019-02-23T17:38:15.488Z,72.42
2019-02-23T17:40:33.811Z,118.33
2019-02-23T17:43:02.325Z,62.50
2019-02-23T17:45:30.248Z,31.23
2019-02-23T17:47:59.201Z,19.30
2019-02-23T17:50:26.920Z,15.75
2019-02-23T17:52:54.692Z,17.02
2019-02-23T17:55:22.606Z,16.87
2019-02-23T17:57:50.488Z,18.17
2019-02-23T18:00:21.327Z,14.60
2019-02-23T18:02:49.820Z,14.07
2019-02-23T18:05:17.566Z,12.80
2019-02-23T18:07:45.391Z,15.72
2019-02-23T18:10:13.698Z,16.02
2019-02-23T18:12:41.584Z,13.60
2019-02-23T18:15:09.464Z,15.23
2019-02-23T18:17:37.271Z,19.05
2019-02-23T18:20:09.244Z,23.20
2019-02-23T18:22:37.141Z,21.57
2019-02-23T18:25:05.139Z,21.93
2019-02-23T18:27:33.731Z,23.27
2019-02-23T18:30:10.746Z,33.63
2019-02-23T18:32:31.367Z,48.25
2019-02-23T18:35:00.485Z,33.40
2019-02-23T18:37:28.714Z,38.92
2019-02-23T18:40:06.639Z,56.98
2019-02-23T18:42:34.562Z,76.67
2019-02-23T18:45:02.493Z,92.62
2019-02-23T18:47:30.428Z,63.85
2019-02-23T18:49:58.189Z,47.80
2019-02-23T18:52:26.059Z,35.30
2019-02-23T18:54:53.869Z,38.98
2019-02-23T18:57:21.770Z,43.73
2019-02-23T18:59:49.950Z,51.45
2019-02-23T19:02:17.846Z,45.20
2019-02-23T19:04:45.573Z,41.23
2019-02-23T19:07:13.484Z,44.55
2019-02-23T19:09:41.224Z,38.78
2019-02-23T19:12:09.018Z,33.35
2019-02-23T19:14:36.768Z,29.85
2019-02-23T19:17:04.665Z,35.35
2019-02-23T19:19:32.504Z,39.05
2019-02-23T19:22:00.421Z,49.45
2019-02-23T19:24:28.382Z,50.30
2019-02-23T19:26:56.192Z,60.73
2019-02-23T19:29:23.954Z,35.17
2019-02-23T19:31:51.832Z,32.78
2019-02-23T19:34:20.365Z,30.27
2019-02-23T19:36:48.911Z,32.53
2019-02-23T19:39:16.705Z,37.60
2019-02-23T19:41:44.475Z,32.08
2019-02-23T19:44:12.284Z,38.83
2019-02-23T19:46:49.176Z,30.48
2019-02-23T19:49:16.980Z,35.70
2019-02-23T19:51:44.711Z,35.58
2019-02-23T19:54:17.905Z,39.73
2019-02-23T19:56:46.997Z,39.13
2019-02-23T19:59:15.040Z,35.13
2019-02-23T20:01:42.899Z,41.68
2019-02-23T20:04:10.684Z,42.08
2019-02-23T20:06:38.416Z,49.18
2019-02-23T20:09:06.739Z,50.03
2019-02-23T20:11:34.475Z,47.70
2019-02-23T20:14:02.394Z,51.80
2019-02-23T20:16:30.140Z,51.88
2019-02-23T20:18:57.983Z,54.88
2019-02-23T20:21:25.848Z,55.90
2019-02-23T20:23:53.753Z,53.68
2019-02-23T20:26:21.600Z,54.33
2019-02-23T20:28:49.417Z,59.05
2019-02-23T20:31:17.165Z,161.52
2019-02-23T20:33:44.987Z,152.25
2019-02-23T20:36:12.856Z,119.95
2019-02-23T20:38:40.762Z,130.05
2019-02-23T20:41:08.523Z,147.95
2019-02-23T20:43:36.346Z,66.05
2019-02-23T20:46:04.172Z,48.75
2019-02-23T20:48:32.170Z,51.20
2019-02-23T20:50:59.910Z,47.17
2019-02-23T20:53:28.630Z,47.27
2019-02-23T20:55:56.601Z,45.78
2019-02-23T20:58:24.396Z,48.13
2019-02-23T21:00:52.258Z,44.10
2019-02-23T21:03:20.048Z,46.00
2019-02-23T21:05:47.814Z,55.20
2019-02-23T21:08:15.815Z,49.63
2019-02-23T21:10:43.732Z,50.10
2019-02-23T21:13:11.609Z,46.35
2019-02-23T21:15:39.471Z,48.08
2019-02-23T21:18:07.256Z,51.63
2019-02-23T21:20:35.171Z,47.33
2019-02-23T21:23:02.936Z,48.55
2019-02-23T21:25:31.349Z,46.55
2019-02-23T21:27:59.395Z,48.28
2019-02-23T21:30:27.185Z,54.45
2019-02-23T21:32:54.937Z,50.30
2019-02-23T21:35:22.947Z,55.85
2019-02-23T21:37:50.684Z,58.25
2019-02-23T21:40:18.804Z,52.85
2019-02-23T21:42:46.776Z,59.00
2019-02-23T21:45:14.775Z,54.53
2019-02-23T21:47:42.505Z,63.75
2019-02-23T21:50:10.416Z,66.50
2019-02-23T21:52:38.264Z,81.22
2019-02-23T21:55:06.325Z,79.30
2019-02-23T21:57:34.152Z,73.70
2019-02-23T22:00:02.766Z,85.87
2019-02-23T22:02:30.573Z,102.12
2019-02-23T22:04:58.451Z,119.25
2019-02-23T22:07:26.302Z,126.25
2019-02-23T22:09:54.096Z,94.05
2019-02-23T22:12:21.835Z,101.25
2019-02-23T22:14:49.629Z,89.28
2019-02-23T22:17:17.499Z,86.08
2019-02-23T22:19:45.384Z,81.80
2019-02-23T22:22:13.141Z,107.50
2019-02-23T22:24:40.957Z,123.53
2019-02-23T22:27:08.704Z,131.20
2019-02-23T22:29:39.422Z,158.45
2019-02-23T22:32:07.290Z,135.43
2019-02-23T22:34:35.076Z,114.67
2019-02-23T22:37:03.016Z,118.85
2019-02-23T22:39:30.905Z,114.03
2019-02-23T22:41:58.765Z,103.10
2019-02-23T22:44:26.586Z,106.95
2019-02-23T22:46:54.414Z,110.52
2019-02-23T22:49:22.301Z,97.82
2019-02-23T22:51:50.150Z,95.17
2019-02-23T22:54:18.046Z,126.90
2019-02-23T22:56:45.985Z,137.92
2019-02-23T22:59:14.202Z,139.37
2019-02-23T23:01:42.253Z,135.90
2019-02-23T23:04:10.095Z,127.02
2019-02-23T23:06:37.901Z,116.08
2019-02-23T23:09:08.134Z,110.20
2019-02-23T23:11:35.945Z,125.47
2019-02-23T23:14:04.396Z,164.50
2019-02-23T23:16:32.497Z,272.63
2019-02-23T23:19:00.219Z,284.57
2019-02-23T23:21:28.006Z,234.72
2019-02-23T23:23:55.755Z,154.05
2019-02-23T23:26:23.675Z,164.77
2019-02-23T23:28:51.505Z,136.65
2019-02-23T23:31:19.391Z,107.72
2019-02-23T23:33:47.136Z,105.22
2019-02-23T23:36:15.040Z,100.50
2019-02-23T23:38:42.783Z,88.78
2019-02-23T23:41:10.565Z,93.67
2019-02-23T23:43:38.404Z,102.75
2019-02-23T23:46:06.209Z,132.32
2019-02-23T23:48:34.157Z,118.02
2019-02-23T23:51:02.436Z,103.42
2019-02-23T23:53:30.589Z,107.12
2019-02-23T23:55:58.362Z,88.20
2019-02-23T23:58:26.279Z,80.70
